createdAt,value
2018-09-05T00:00:41.600Z,16.30
2018-09-05T00:03:09.917Z,16.30
2018-09-05T00:05:38.347Z,16.30
2018-09-05T00:08:06.668Z,16.30
2018-09-05T00:10:35.381Z,16.20
2018-09-05T00:13:04.047Z,16.10
2018-09-05T00:15:32.724Z,16.00
2018-09-05T00:18:01.008Z,15.90
2018-09-05T00:20:29.739Z,15.90
2018-09-05T00:22:58.116Z,15.80
2018-09-05T00:25:26.967Z,15.80
2018-09-05T00:27:55.579Z,15.80
2018-09-05T00:30:24.409Z,15.70
2018-09-05T00:32:52.973Z,15.80
2018-09-05T00:35:21.533Z,15.80
2018-09-05T00:37:50.076Z,15.80
2018-09-05T00:40:18.590Z,15.80
2018-09-05T00:42:47.497Z,15.80
2018-09-05T00:45:16.259Z,15.80
2018-09-05T00:47:44.730Z,15.80
2018-09-05T00:50:13.039Z,15.70
2018-09-05T00:52:41.601Z,15.70
2018-09-05T00:55:10.001Z,15.60
2018-09-05T00:57:38.297Z,15.60
2018-09-05T01:00:06.715Z,15.50
2018-09-05T01:02:35.136Z,15.40
2018-09-05T01:05:03.468Z,15.50
2018-09-05T01:07:31.867Z,15.50
2018-09-05T01:10:00.203Z,15.50
2018-09-05T01:12:28.727Z,15.60
2018-09-05T01:14:57.109Z,15.60
2018-09-05T01:17:25.897Z,15.60
2018-09-05T01:19:55.168Z,15.60
2018-09-05T01:22:23.532Z,15.60
2018-09-05T01:24:51.928Z,15.60
2018-09-05T01:27:20.543Z,15.60
2018-09-05T01:29:48.763Z,15.50
2018-09-05T01:32:17.182Z,15.40
2018-09-05T01:34:45.572Z,15.30
2018-09-05T01:37:14.257Z,15.20
2018-09-05T01:39:42.634Z,15.20
2018-09-05T01:42:11.274Z,15.20
2018-09-05T01:44:40.028Z,15.20
2018-09-05T01:47:08.847Z,15.30
2018-09-05T01:49:37.201Z,15.30
2018-09-05T01:52:05.712Z,15.20
2018-09-05T01:54:34.041Z,15.20
2018-09-05T01:57:02.373Z,15.30
2018-09-05T01:59:30.783Z,15.30
2018-09-05T02:01:59.165Z,15.30
2018-09-05T02:04:27.587Z,15.20
2018-09-05T02:06:55.921Z,15.20
2018-09-05T02:09:24.337Z,15.10
2018-09-05T02:11:52.741Z,15.10
2018-09-05T02:14:20.991Z,15.20
2018-09-05T02:16:49.344Z,15.20
2018-09-05T02:19:17.707Z,15.20
2018-09-05T02:21:46.325Z,15.20
2018-09-05T02:24:14.590Z,15.10
2018-09-05T02:26:42.967Z,15.10
2018-09-05T02:29:11.227Z,15.00
2018-09-05T02:31:39.699Z,15.00
2018-09-05T02:34:08.121Z,15.10
2018-09-05T02:36:36.663Z,15.10
2018-09-05T02:39:07.723Z,15.10
2018-09-05T02:41:36.243Z,15.10
2018-09-05T02:44:08.682Z,15.10
2018-09-05T02:46:37.389Z,15.10
2018-09-05T02:49:05.685Z,15.00
2018-09-05T02:51:34.076Z,15.00
2018-09-05T02:54:02.496Z,14.90
2018-09-05T02:56:31.078Z,14.90
2018-09-05T02:58:59.374Z,14.90
2018-09-05T03:01:27.660Z,14.80
2018-09-05T03:03:56.015Z,14.80
2018-09-05T03:06:24.443Z,14.80
2018-09-05T03:08:52.807Z,14.70
2018-09-05T03:11:21.245Z,14.70
2018-09-05T03:13:49.842Z,14.70
2018-09-05T03:16:18.160Z,14.70
2018-09-05T03:18:46.497Z,14.70
2018-09-05T03:21:14.860Z,14.60
2018-09-05T03:23:43.166Z,14.60
2018-09-05T03:26:11.473Z,14.60
2018-09-05T03:28:39.815Z,14.60
2018-09-05T03:31:08.294Z,14.50
2018-09-05T03:33:36.712Z,14.50
2018-09-05T03:36:05.286Z,14.50
2018-09-05T03:38:33.626Z,14.40
2018-09-05T03:41:01.933Z,14.40
2018-09-05T03:43:30.200Z,14.40
2018-09-05T03:45:58.747Z,14.40
2018-09-05T03:48:27.067Z,14.40
2018-09-05T03:50:56.738Z,14.40
2018-09-05T03:53:26.154Z,14.40
2018-09-05T03:55:55.126Z,14.30
2018-09-05T03:58:23.632Z,14.30
2018-09-05T04:00:51.952Z,14.30
2018-09-05T04:03:20.300Z,14.30
2018-09-05T04:05:48.745Z,14.30
2018-09-05T04:08:17.125Z,14.20
2018-09-05T04:10:45.500Z,14.30
2018-09-05T04:13:13.979Z,14.20
2018-09-05T04:15:43.066Z,14.30
2018-09-05T04:18:11.770Z,14.30
2018-09-05T04:20:40.131Z,14.20
2018-09-05T04:23:08.448Z,14.20
2018-09-05T04:25:36.834Z,14.30
2018-09-05T04:28:05.168Z,14.20
2018-09-05T04:30:33.848Z,14.20
2018-09-05T04:33:02.274Z,14.10
2018-09-05T04:35:30.989Z,14.10
2018-09-05T04:37:59.410Z,14.00
2018-09-05T04:40:27.732Z,14.00
2018-09-05T04:42:56.181Z,14.00
2018-09-05T04:45:24.553Z,14.00
2018-09-05T04:47:52.880Z,14.00
2018-09-05T04:50:21.236Z,14.10
2018-09-05T04:52:49.614Z,14.20
2018-09-05T04:55:17.926Z,14.30
2018-09-05T04:57:46.211Z,14.30
2018-09-05T05:00:14.553Z,14.30
2018-09-05T05:02:42.950Z,14.30
2018-09-05T05:05:11.345Z,14.40
2018-09-05T05:07:39.876Z,14.50
2018-09-05T05:10:08.206Z,14.60
2018-09-05T05:12:36.594Z,14.70
2018-09-05T05:15:04.995Z,14.80
2018-09-05T05:17:33.367Z,15.00
2018-09-05T05:20:01.717Z,15.10
2018-09-05T05:22:30.094Z,15.20
2018-09-05T05:24:59.356Z,15.40
2018-09-05T05:27:27.721Z,15.50
2018-09-05T05:29:56.118Z,15.60
2018-09-05T05:32:24.691Z,15.80
2018-09-05T05:34:53.083Z,16.00
2018-09-05T05:37:21.453Z,16.30
2018-09-05T05:39:49.768Z,16.40
2018-09-05T05:42:18.121Z,16.50
2018-09-05T05:44:46.543Z,16.50
2018-09-05T05:47:14.934Z,16.70
2018-09-05T05:49:43.388Z,16.90
2018-09-05T05:52:11.732Z,17.10
2018-09-05T05:54:40.394Z,17.40
2018-09-05T05:57:09.394Z,17.60
2018-09-05T05:59:37.809Z,17.80
2018-09-05T06:02:06.209Z,18.10
2018-09-05T06:04:34.556Z,18.30
2018-09-05T06:07:02.991Z,18.40
2018-09-05T06:09:31.980Z,18.30
2018-09-05T06:12:00.351Z,18.20
2018-09-05T06:14:28.840Z,18.30
2018-09-05T06:16:57.216Z,18.50
2018-09-05T06:19:25.632Z,18.50
2018-09-05T06:21:53.982Z,18.70
2018-09-05T06:24:22.432Z,19.10
2018-09-05T06:26:53.312Z,19.10
2018-09-05T06:29:22.003Z,19.20
2018-09-05T06:31:50.461Z,19.60
2018-09-05T06:34:19.057Z,20.00
2018-09-05T06:36:47.486Z,20.20
2018-09-05T06:39:15.888Z,20.50
2018-09-05T06:41:44.195Z,20.90
2018-09-05T06:44:12.570Z,21.40
2018-09-05T06:46:41.391Z,21.60
2018-09-05T06:49:09.765Z,21.90
2018-09-05T06:51:38.619Z,22.40
2018-09-05T06:54:06.891Z,23.00
2018-09-05T06:56:35.182Z,23.40
2018-09-05T06:59:03.555Z,23.60
2018-09-05T07:01:32.085Z,23.80
2018-09-05T07:04:00.543Z,24.00
2018-09-05T07:06:28.842Z,24.10
2018-09-05T07:08:57.141Z,24.30
2018-09-05T07:11:25.544Z,24.60
2018-09-05T07:13:53.909Z,24.90
2018-09-05T07:16:22.299Z,25.20
2018-09-05T07:18:50.830Z,24.60
2018-09-05T07:21:19.163Z,24.90
2018-09-05T07:23:50.205Z,24.70
2018-09-05T07:26:18.627Z,24.70
2018-09-05T07:28:46.948Z,25.20
2018-09-05T07:31:15.940Z,25.40
2018-09-05T07:33:44.318Z,25.20
2018-09-05T07:36:12.744Z,25.20
2018-09-05T07:38:41.137Z,24.90
2018-09-05T07:41:09.455Z,24.20
2018-09-05T07:43:38.142Z,24.00
2018-09-05T07:46:06.582Z,24.40
2018-09-05T07:48:35.392Z,24.80
2018-09-05T07:51:03.750Z,25.70
2018-09-05T07:53:32.209Z,26.30
2018-09-05T07:56:00.546Z,26.80
2018-09-05T07:58:28.869Z,26.40
2018-09-05T08:00:57.257Z,26.30
2018-09-05T08:03:25.622Z,27.00
2018-09-05T08:05:54.489Z,27.30
2018-09-05T08:08:22.997Z,27.10
2018-09-05T08:10:51.555Z,26.80
2018-09-05T08:13:19.855Z,27.00
2018-09-05T08:15:48.846Z,27.50
2018-09-05T08:18:17.325Z,27.50
2018-09-05T08:20:45.852Z,27.20
2018-09-05T08:23:14.394Z,27.20
2018-09-05T08:25:42.908Z,27.50
2018-09-05T08:30:39.962Z,27.80
2018-09-05T08:33:08.272Z,28.10
2018-09-05T08:35:36.881Z,28.90
2018-09-05T08:38:05.029Z,28.90
2018-09-05T08:40:33.509Z,28.30
2018-09-05T08:43:01.844Z,28.30
2018-09-05T08:45:30.787Z,29.10
2018-09-05T08:47:58.784Z,28.30
2018-09-05T08:50:27.219Z,28.20
2018-09-05T08:52:58.725Z,27.60
2018-09-05T08:55:27.344Z,27.70
2018-09-05T08:57:55.705Z,27.40
2018-09-05T09:00:24.373Z,27.80
2018-09-05T09:02:52.884Z,28.00
2018-09-05T09:05:21.532Z,29.00
2018-09-05T09:07:50.181Z,30.00
2018-09-05T09:10:18.591Z,29.40
2018-09-05T09:12:46.942Z,29.50
2018-09-05T09:15:15.319Z,28.30
2018-09-05T09:17:44.394Z,28.20
2018-09-05T09:20:13.482Z,28.50
2018-09-05T09:22:42.182Z,29.00
2018-09-05T09:25:10.591Z,29.50
2018-09-05T09:27:39.011Z,29.60
2018-09-05T09:30:07.678Z,29.90
2018-09-05T09:32:36.290Z,29.00
2018-09-05T09:35:04.674Z,28.70
2018-09-05T09:37:33.011Z,28.80
2018-09-05T09:40:01.471Z,28.60
2018-09-05T09:42:29.856Z,29.90
2018-09-05T09:44:58.211Z,30.60
2018-09-05T09:47:27.635Z,30.20
2018-09-05T09:49:56.425Z,30.10
2018-09-05T09:52:24.817Z,30.10
2018-09-05T09:54:53.529Z,30.70
2018-09-05T09:57:22.161Z,31.30
2018-09-05T09:59:50.600Z,31.80
2018-09-05T10:02:23.762Z,31.50
2018-09-05T10:04:56.308Z,31.70
2018-09-05T10:07:28.889Z,31.60
2018-09-05T10:10:01.859Z,30.80
2018-09-05T10:12:34.154Z,30.30
2018-09-05T10:15:06.752Z,30.60
2018-09-05T10:17:37.287Z,29.60
2018-09-05T10:20:06.122Z,29.40
2018-09-05T10:22:34.556Z,29.40
2018-09-05T10:25:02.853Z,29.10
2018-09-05T10:27:31.255Z,28.70
2018-09-05T10:29:59.618Z,28.90
2018-09-05T10:32:27.968Z,29.50
2018-09-05T10:34:56.968Z,29.70
2018-09-05T10:37:25.684Z,30.10
2018-09-05T10:39:54.397Z,30.70
2018-09-05T10:42:23.090Z,31.10
2018-09-05T10:44:52.249Z,30.70
2018-09-05T10:47:21.026Z,29.50
2018-09-05T10:49:49.468Z,29.00
2018-09-05T10:52:18.198Z,29.10
2018-09-05T10:54:46.623Z,29.70
2018-09-05T10:57:14.988Z,30.50
2018-09-05T10:59:43.646Z,31.10
2018-09-05T11:02:11.964Z,31.10
2018-09-05T11:04:40.695Z,30.70
2018-09-05T11:07:10.344Z,30.60
2018-09-05T11:09:38.882Z,31.20
2018-09-05T11:12:07.598Z,31.90
2018-09-05T11:14:35.991Z,31.90
2018-09-05T11:17:05.078Z,31.40
2018-09-05T11:19:33.459Z,30.80
2018-09-05T11:22:01.896Z,30.70
2018-09-05T11:24:30.536Z,30.60
2018-09-05T11:26:58.905Z,30.90
2018-09-05T11:29:27.170Z,29.30
2018-09-05T11:31:55.993Z,29.10
2018-09-05T11:34:24.318Z,29.40
2018-09-05T11:36:52.769Z,29.00
2018-09-05T11:39:21.063Z,30.00
2018-09-05T11:41:49.796Z,30.50
2018-09-05T11:44:18.131Z,30.50
2018-09-05T11:46:46.757Z,29.80
2018-09-05T11:49:15.085Z,30.50
2018-09-05T11:51:43.360Z,30.30
2018-09-05T11:54:11.696Z,30.40
2018-09-05T11:56:39.949Z,30.50
2018-09-05T11:59:08.563Z,30.10
2018-09-05T12:01:37.739Z,29.80
2018-09-05T12:04:06.074Z,29.70
2018-09-05T12:06:35.397Z,30.60
2018-09-05T12:09:05.848Z,30.90
2018-09-05T12:11:34.381Z,30.40
2018-09-05T12:14:03.011Z,29.90
2018-09-05T12:16:32.000Z,30.00
2018-09-05T12:19:00.482Z,30.90
2018-09-05T12:21:29.081Z,30.50
2018-09-05T12:23:57.940Z,30.40
2018-09-05T12:26:26.505Z,30.10
2018-09-05T12:28:54.881Z,30.40
2018-09-05T12:31:23.609Z,31.10
2018-09-05T12:33:51.964Z,31.60
2018-09-05T12:36:20.322Z,31.40
2018-09-05T12:38:48.916Z,31.60
2018-09-05T12:41:17.257Z,32.30
2018-09-05T12:43:46.041Z,31.80
2018-09-05T12:46:14.396Z,30.90
2018-09-05T12:48:42.733Z,30.00
2018-09-05T12:51:11.237Z,29.70
2018-09-05T12:53:39.920Z,30.00
2018-09-05T12:56:08.367Z,31.30
2018-09-05T12:58:36.668Z,32.10
2018-09-05T13:01:05.252Z,33.20
2018-09-05T13:03:33.941Z,33.10
2018-09-05T13:06:03.050Z,31.90
2018-09-05T13:08:31.563Z,30.80
2018-09-05T13:10:59.933Z,31.50
2018-09-05T13:13:28.796Z,32.60
2018-09-05T13:17:33.583Z,31.50
2018-09-05T13:20:02.047Z,31.60
2018-09-05T13:22:30.394Z,30.90
2018-09-05T13:24:59.032Z,30.70
2018-09-05T13:27:27.717Z,30.30
2018-09-05T13:29:58.088Z,30.60
2018-09-05T13:32:27.043Z,30.60
2018-09-05T13:34:55.816Z,30.50
2018-09-05T13:37:24.500Z,31.00
2018-09-05T13:39:52.988Z,31.70
2018-09-05T13:42:21.417Z,31.00
2018-09-05T13:44:49.930Z,30.70
2018-09-05T13:47:18.258Z,30.20
2018-09-05T13:49:46.701Z,30.40
2018-09-05T13:52:19.279Z,30.00
2018-09-05T13:54:47.662Z,30.10
2018-09-05T13:57:16.034Z,30.70
2018-09-05T13:59:45.244Z,31.00
2018-09-05T14:02:13.536Z,31.00
2018-09-05T14:04:41.948Z,30.20
2018-09-05T14:07:10.374Z,30.80
2018-09-05T14:09:39.544Z,30.50
2018-09-05T14:12:07.974Z,30.30
2018-09-05T14:14:36.551Z,30.10
2018-09-05T14:17:04.963Z,29.60
2018-09-05T14:19:34.045Z,29.00
2018-09-05T14:22:02.783Z,28.80
2018-09-05T14:24:32.230Z,28.50
2018-09-05T14:27:00.528Z,28.90
2018-09-05T14:29:28.860Z,29.10
2018-09-05T14:31:57.268Z,28.90
2018-09-05T14:34:25.710Z,28.80
2018-09-05T14:36:54.452Z,29.00
2018-09-05T14:39:22.836Z,29.10
2018-09-05T14:41:51.313Z,28.80
2018-09-05T14:44:19.690Z,28.70
2018-09-05T14:46:48.382Z,28.60
2018-09-05T14:49:17.206Z,28.40
2018-09-05T14:51:45.619Z,28.30
2018-09-05T14:54:14.135Z,28.40
2018-09-05T14:56:42.463Z,28.40
2018-09-05T14:59:11.128Z,28.50
2018-09-05T15:01:39.548Z,28.30
2018-09-05T15:04:08.015Z,28.10
2018-09-05T15:06:36.709Z,27.90
2018-09-05T15:09:08.366Z,27.60
2018-09-05T15:11:36.756Z,27.60
2018-09-05T15:14:05.079Z,27.50
2018-09-05T15:16:33.476Z,27.60
2018-09-05T15:19:01.962Z,27.70
2018-09-05T15:21:30.354Z,27.70
2018-09-05T15:23:59.088Z,27.40
2018-09-05T15:26:27.447Z,27.40
2018-09-05T15:28:55.877Z,27.40
2018-09-05T15:31:24.643Z,27.40
2018-09-05T15:33:53.038Z,27.30
2018-09-05T15:36:21.479Z,27.30
2018-09-05T15:38:49.902Z,27.20
2018-09-05T15:41:18.265Z,27.20
2018-09-05T15:43:46.656Z,27.20
2018-09-05T15:46:15.341Z,27.10
2018-09-05T15:48:43.835Z,26.90
2018-09-05T15:51:12.250Z,27.00
2018-09-05T15:53:40.701Z,27.10
2018-09-05T15:56:09.293Z,27.00
2018-09-05T15:58:38.051Z,26.80
2018-09-05T16:01:06.452Z,26.80
2018-09-05T16:03:34.977Z,26.70
2018-09-05T16:06:03.246Z,26.70
2018-09-05T16:08:32.298Z,26.70
2018-09-05T16:11:01.103Z,26.70
2018-09-05T16:13:29.444Z,26.70
2018-09-05T16:15:57.826Z,26.70
2018-09-05T16:18:26.336Z,26.70
2018-09-05T16:20:55.035Z,26.50
2018-09-05T16:23:23.562Z,26.40
2018-09-05T16:25:53.085Z,26.50
2018-09-05T16:28:21.525Z,26.50
2018-09-05T16:30:50.055Z,26.40
2018-09-05T16:33:18.544Z,26.30
2018-09-05T16:35:47.421Z,26.30
2018-09-05T16:38:15.887Z,26.20
2018-09-05T16:40:44.255Z,26.20
2018-09-05T16:43:12.629Z,26.10
2018-09-05T16:45:41.055Z,26.10
2018-09-05T16:48:09.429Z,26.10
2018-09-05T16:50:37.834Z,26.00
2018-09-05T16:53:06.194Z,26.00
2018-09-05T16:55:35.051Z,25.90
2018-09-05T16:58:03.471Z,25.90
2018-09-05T17:00:33.138Z,25.90
2018-09-05T17:03:02.025Z,25.80
2018-09-05T17:05:30.411Z,25.80
2018-09-05T17:07:59.131Z,25.70
2018-09-05T17:10:28.114Z,25.70
2018-09-05T17:12:56.469Z,25.60
2018-09-05T17:15:24.935Z,25.50
2018-09-05T17:17:53.251Z,25.40
2018-09-05T17:20:22.112Z,25.40
2018-09-05T17:22:50.646Z,25.30
2018-09-05T17:25:19.021Z,25.30
2018-09-05T17:27:47.367Z,25.20
2018-09-05T17:30:15.696Z,25.00
2018-09-05T17:32:44.428Z,24.90
2018-09-05T17:35:13.111Z,24.90
2018-09-05T17:37:41.734Z,24.80
2018-09-05T17:40:11.686Z,24.70
2018-09-05T17:42:41.089Z,24.60
2018-09-05T17:45:09.834Z,24.50
2018-09-05T17:47:38.501Z,24.40
2018-09-05T17:50:06.913Z,24.30
2018-09-05T17:52:35.882Z,24.30
2018-09-05T17:55:04.983Z,24.20
2018-09-05T17:57:33.670Z,24.10
2018-09-05T18:00:02.354Z,24.10
2018-09-05T18:02:31.349Z,24.00
2018-09-05T18:05:00.734Z,23.90
2018-09-05T18:07:29.655Z,23.80
2018-09-05T18:09:58.768Z,23.70
2018-09-05T18:12:27.016Z,23.60
2018-09-05T18:14:55.749Z,23.70
2018-09-05T18:17:24.329Z,23.60
2018-09-05T18:19:54.059Z,23.50
2018-09-05T18:22:23.019Z,23.30
2018-09-05T18:24:51.741Z,23.30
2018-09-05T18:27:22.787Z,23.20
2018-09-05T18:29:51.198Z,23.10
2018-09-05T18:32:19.832Z,23.10
2018-09-05T18:34:48.244Z,23.10
2018-09-05T18:37:16.603Z,23.00
2018-09-05T18:39:45.030Z,22.90
2018-09-05T18:42:13.471Z,22.90
2018-09-05T18:44:42.650Z,22.80
2018-09-05T18:47:10.992Z,22.90
2018-09-05T18:49:42.129Z,22.90
2018-09-05T18:52:10.713Z,22.80
2018-09-05T18:54:39.153Z,22.70
2018-09-05T18:57:07.806Z,22.70
2018-09-05T18:59:36.321Z,22.70
2018-09-05T19:02:04.939Z,22.60
2018-09-05T19:04:33.372Z,22.60
2018-09-05T19:07:01.841Z,22.50
2018-09-05T19:09:30.531Z,22.40
2018-09-05T19:11:59.636Z,22.30
2018-09-05T19:14:27.982Z,22.20
2018-09-05T19:16:56.511Z,22.20
2018-09-05T19:19:24.856Z,22.10
2018-09-05T19:21:53.306Z,22.00
2018-09-05T19:24:22.111Z,22.00
2018-09-05T19:26:50.442Z,21.90
2018-09-05T19:29:18.950Z,21.80
2018-09-05T19:31:47.854Z,21.80
2018-09-05T19:34:16.278Z,21.80
2018-09-05T19:36:44.734Z,21.70
2018-09-05T19:39:13.208Z,21.70
2018-09-05T19:41:41.819Z,21.70
2018-09-05T19:44:10.594Z,21.60
2018-09-05T19:46:39.039Z,21.60
2018-09-05T19:49:08.019Z,21.40
2018-09-05T19:51:36.482Z,21.30
2018-09-05T19:54:05.204Z,21.30
2018-09-05T19:56:33.596Z,21.30
2018-09-05T19:59:02.250Z,21.30
2018-09-05T20:01:32.129Z,21.30
2018-09-05T20:04:00.483Z,21.30
2018-09-05T20:06:28.954Z,21.20
2018-09-05T20:08:57.649Z,21.10
2018-09-05T20:11:26.109Z,21.10
2018-09-05T20:13:56.280Z,20.90
2018-09-05T20:16:24.905Z,20.90
2018-09-05T20:18:53.911Z,20.80
2018-09-05T20:21:22.373Z,20.80
2018-09-05T20:23:50.739Z,20.80
2018-09-05T20:26:19.200Z,20.70
2018-09-05T20:28:47.873Z,20.70
2018-09-05T20:31:17.746Z,20.60
2018-09-05T20:33:46.491Z,20.60
2018-09-05T20:36:15.274Z,20.40
2018-09-05T20:38:43.880Z,20.40
2018-09-05T20:41:12.561Z,20.40
2018-09-05T20:43:42.278Z,20.40
2018-09-05T20:46:10.546Z,20.50
2018-09-05T20:48:40.695Z,20.40
2018-09-05T20:51:09.534Z,20.40
2018-09-05T20:53:38.025Z,20.30
2018-09-05T20:56:07.955Z,20.20
2018-09-05T20:58:37.550Z,20.30
2018-09-05T21:01:06.255Z,20.10
2018-09-05T21:03:34.871Z,20.00
2018-09-05T21:06:03.471Z,20.00
2018-09-05T21:08:31.903Z,19.90
2018-09-05T21:11:00.353Z,19.90
2018-09-05T21:13:29.239Z,19.80
2018-09-05T21:15:57.613Z,19.80
2018-09-05T21:18:26.198Z,19.80
2018-09-05T21:20:55.950Z,19.70
2018-09-05T21:23:24.323Z,19.60
2018-09-05T21:25:52.718Z,19.50
2018-09-05T21:28:21.947Z,19.50
2018-09-05T21:30:50.351Z,19.40
2018-09-05T21:33:18.768Z,19.40
2018-09-05T21:35:47.445Z,19.30
2018-09-05T21:38:15.851Z,19.20
2018-09-05T21:40:44.250Z,19.00
2018-09-05T21:43:13.068Z,19.00
2018-09-05T21:45:41.762Z,18.90
2018-09-05T21:48:10.912Z,18.90
2018-09-05T21:50:40.106Z,18.90
2018-09-05T21:53:08.571Z,18.90
2018-09-05T21:55:37.049Z,18.90
2018-09-05T21:58:05.644Z,18.80
2018-09-05T22:00:34.158Z,18.80
2018-09-05T22:03:03.348Z,18.90
2018-09-05T22:05:32.162Z,18.90
2018-09-05T22:08:04.286Z,18.90
2018-09-05T22:10:32.667Z,18.90
2018-09-05T22:13:01.083Z,18.90
2018-09-05T22:15:33.564Z,18.80
2018-09-05T22:18:02.145Z,18.80
2018-09-05T22:20:30.472Z,18.70
2018-09-05T22:22:58.885Z,18.70
2018-09-05T22:25:27.262Z,18.60
2018-09-05T22:27:55.797Z,18.60
2018-09-05T22:30:24.288Z,18.60
2018-09-05T22:32:52.685Z,18.50
2018-09-05T22:35:21.165Z,18.50
2018-09-05T22:37:49.892Z,18.40
2018-09-05T22:40:18.497Z,18.30
2018-09-05T22:42:55.640Z,18.20
2018-09-05T22:45:32.821Z,18.00
2018-09-05T22:48:14.107Z,17.80
2018-09-05T22:50:55.484Z,17.80
2018-09-05T22:53:36.869Z,17.80
2018-09-05T22:56:18.204Z,17.70
2018-09-05T22:58:55.380Z,17.70
2018-09-05T23:01:32.620Z,17.70
2018-09-05T23:04:09.792Z,17.70
2018-09-05T23:06:46.985Z,17.70
2018-09-05T23:09:16.165Z,17.70
2018-09-05T23:11:53.807Z,17.60
2018-09-05T23:14:30.971Z,17.50
2018-09-05T23:17:08.261Z,17.50
2018-09-05T23:19:43.954Z,17.50
2018-09-05T23:22:12.466Z,17.50
2018-09-05T23:24:41.073Z,17.50
2018-09-05T23:27:09.408Z,17.40
2018-09-05T23:29:37.794Z,17.30
2018-09-05T23:32:06.518Z,17.20
2018-09-05T23:34:34.823Z,17.20
2018-09-05T23:37:03.378Z,17.10
2018-09-05T23:39:32.429Z,17.10
2018-09-05T23:42:00.757Z,17.00
2018-09-05T23:44:29.082Z,17.10
2018-09-05T23:46:57.449Z,17.20
2018-09-05T23:49:25.813Z,17.20
2018-09-05T23:51:54.200Z,17.40
2018-09-05T23:54:22.582Z,17.40
2018-09-05T23:56:50.990Z,17.30
2018-09-05T23:59:19.361Z,17.20
